sensor_id;sensor_type;location;lat;lon;timestamp;pressure;altitude;pressure_sealevel;temperature;humidity
16120;BME280;12670;53.502;10.252;2023-04-03T00:02:44;102974.69;;;2.58;91.23
16120;BME280;12670;53.502;10.252;2023-04-03T00:05:47;102967.13;;;2.68;90.64
16120;BME280;12670;53.502;10.252;2023-04-03T00:08:50;102973.75;;;2.54;90.68
16120;BME280;12670;53.502;10.252;2023-04-03T00:11:52;102967.69;;;2.57;90.94
16120;BME280;12670;53.502;10.252;2023-04-03T00:14:55;102978.28;;;2.61;90.70
16120;BME280;12670;53.502;10.252;2023-04-03T00:17:59;102974.78;;;2.61;90.56
16120;BME280;12670;53.502;10.252;2023-04-03T00:21:03;102979.56;;;2.76;89.91
16120;BME280;12670;53.502;10.252;2023-04-03T00:24:06;102982.97;;;2.73;89.93
16120;BME280;12670;53.502;10.252;2023-04-03T00:27:08;102978.47;;;2.67;90.09
16120;BME280;12670;53.502;10.252;2023-04-03T00:30:14;102983.72;;;2.69;90.72
16120;BME280;12670;53.502;10.252;2023-04-03T00:33:19;102978.31;;;2.63;90.55
16120;BME280;12670;53.502;10.252;2023-04-03T00:36:23;102985.13;;;2.55;90.68
16120;BME280;12670;53.502;10.252;2023-04-03T00:39:25;102987.91;;;2.61;90.91
16120;BME280;12670;53.502;10.252;2023-04-03T00:42:28;102993.03;;;2.58;90.83
16120;BME280;12670;53.502;10.252;2023-04-03T00:45:34;102998.38;;;2.61;90.58
16120;BME280;12670;53.502;10.252;2023-04-03T00:48:40;102987.38;;;2.41;90.94
16120;BME280;12670;53.502;10.252;2023-04-03T00:51:44;102990.19;;;2.49;91.15
16120;BME280;12670;53.502;10.252;2023-04-03T00:54:49;102982.28;;;2.47;90.53
16120;BME280;12670;53.502;10.252;2023-04-03T00:57:53;102994.41;;;2.44;91.16
16120;BME280;12670;53.502;10.252;2023-04-03T01:00:58;102991.78;;;2.44;90.71
16120;BME280;12670;53.502;10.252;2023-04-03T01:04:03;102990.63;;;2.34;91.42
16120;BME280;12670;53.502;10.252;2023-04-03T01:07:09;102993.22;;;2.32;91.58
16120;BME280;12670;53.502;10.252;2023-04-03T01:10:14;102989.00;;;2.37;91.14
16120;BME280;12670;53.502;10.252;2023-04-03T01:13:24;102989.75;;;2.33;91.45
16120;BME280;12670;53.502;10.252;2023-04-03T01:16:27;102988.00;;;2.34;91.19
16120;BME280;12670;53.502;10.252;2023-04-03T01:19:36;102984.78;;;2.43;91.00
16120;BME280;12670;53.502;10.252;2023-04-03T01:22:44;102992.72;;;2.46;91.07
16120;BME280;12670;53.502;10.252;2023-04-03T01:25:54;102995.09;;;2.36;91.33
16120;BME280;12670;53.502;10.252;2023-04-03T01:28:59;102994.28;;;2.39;90.94
16120;BME280;12670;53.502;10.252;2023-04-03T01:32:04;102989.75;;;2.33;91.18
16120;BME280;12670;53.502;10.252;2023-04-03T01:35:08;102992.38;;;2.33;91.61
16120;BME280;12670;53.502;10.252;2023-04-03T01:38:11;102993.38;;;2.38;91.44
16120;BME280;12670;53.502;10.252;2023-04-03T01:41:14;102988.63;;;2.24;91.73
16120;BME280;12670;53.502;10.252;2023-04-03T01:44:17;102993.50;;;2.42;91.07
16120;BME280;12670;53.502;10.252;2023-04-03T01:47:21;102992.63;;;2.43;90.32
16120;BME280;12670;53.502;10.252;2023-04-03T01:50:24;102989.75;;;2.33;90.75
16120;BME280;12670;53.502;10.252;2023-04-03T01:53:27;102992.25;;;2.29;90.72
16120;BME280;12670;53.502;10.252;2023-04-03T01:56:29;102990.53;;;2.29;91.30
16120;BME280;12670;53.502;10.252;2023-04-03T01:59:32;102988.78;;;2.30;91.40
16120;BME280;12670;53.502;10.252;2023-04-03T02:02:36;102993.31;;;2.35;91.14
16120;BME280;12670;53.502;10.252;2023-04-03T02:05:39;103001.06;;;2.32;91.16
16120;BME280;12670;53.502;10.252;2023-04-03T02:08:41;102997.56;;;2.32;91.28
16120;BME280;12670;53.502;10.252;2023-04-03T02:11:44;102998.72;;;2.42;91.07
16120;BME280;12670;53.502;10.252;2023-04-03T02:14:47;103002.19;;;2.40;90.61
16120;BME280;12670;53.502;10.252;2023-04-03T02:17:51;102996.97;;;2.40;90.65
16120;BME280;12670;53.502;10.252;2023-04-03T02:20:54;103003.53;;;2.26;91.40
16120;BME280;12670;53.502;10.252;2023-04-03T02:23:56;102995.84;;;2.32;91.10
16120;BME280;12670;53.502;10.252;2023-04-03T02:26:59;102998.38;;;2.29;91.18
16120;BME280;12670;53.502;10.252;2023-04-03T02:30:02;102997.50;;;2.29;90.92
16120;BME280;12670;53.502;10.252;2023-04-03T02:33:06;103004.34;;;2.24;91.38
16120;BME280;12670;53.502;10.252;2023-04-03T02:36:09;103011.16;;;2.19;91.65
16120;BME280;12670;53.502;10.252;2023-04-03T02:39:12;103010.34;;;2.21;91.26
16120;BME280;12670;53.502;10.252;2023-04-03T02:42:14;103006.72;;;2.16;91.33
16120;BME280;12670;53.502;10.252;2023-04-03T02:45:17;103000.06;;;2.27;90.99
16120;BME280;12670;53.502;10.252;2023-04-03T02:48:21;103005.84;;;2.16;91.51
16120;BME280;12670;53.502;10.252;2023-04-03T02:51:24;103010.34;;;2.21;90.80
16120;BME280;12670;53.502;10.252;2023-04-03T02:54:26;103016.38;;;2.17;91.14
16120;BME280;12670;53.502;10.252;2023-04-03T02:57:31;103010.56;;;1.99;91.70
16120;BME280;12670;53.502;10.252;2023-04-03T03:00:34;103011.59;;;2.04;91.58
16120;BME280;12670;53.502;10.252;2023-04-03T03:03:38;103010.63;;;2.00;91.57
16120;BME280;12670;53.502;10.252;2023-04-03T03:06:41;103017.91;;;2.10;91.11
16120;BME280;12670;53.502;10.252;2023-04-03T03:09:45;103015.06;;;2.03;91.06
16120;BME280;12670;53.502;10.252;2023-04-03T03:12:48;103014.41;;;1.81;91.52
16120;BME280;12670;53.502;10.252;2023-04-03T03:15:51;103009.34;;;1.87;91.53
16120;BME280;12670;53.502;10.252;2023-04-03T03:18:55;103020.31;;;2.03;91.08
16120;BME280;12670;53.502;10.252;2023-04-03T03:21:59;103018.16;;;1.90;91.06
16120;BME280;12670;53.502;10.252;2023-04-03T03:25:02;103007.69;;;1.90;91.39
16120;BME280;12670;53.502;10.252;2023-04-03T03:28:05;103011.03;;;1.85;90.49
16120;BME280;12670;53.502;10.252;2023-04-03T03:31:08;103010.38;;;1.93;90.82
16120;BME280;12670;53.502;10.252;2023-04-03T03:34:13;103009.25;;;1.83;91.45
16120;BME280;12670;53.502;10.252;2023-04-03T03:37:15;103013.34;;;1.75;91.58
16120;BME280;12670;53.502;10.252;2023-04-03T03:40:18;103015.03;;;1.73;91.61
16120;BME280;12670;53.502;10.252;2023-04-03T03:43:21;103010.69;;;1.73;92.01
16120;BME280;12670;53.502;10.252;2023-04-03T03:46:24;103008.34;;;1.82;91.76
16120;BME280;12670;53.502;10.252;2023-04-03T03:49:28;103010.81;;;1.78;91.43
16120;BME280;12670;53.502;10.252;2023-04-03T03:52:30;103010.59;;;1.70;91.63
16120;BME280;12670;53.502;10.252;2023-04-03T03:55:33;103012.94;;;1.90;90.82
16120;BME280;12670;53.502;10.252;2023-04-03T03:58:36;103018.81;;;1.82;90.72
16120;BME280;12670;53.502;10.252;2023-04-03T04:01:39;103021.81;;;1.66;91.56
16120;BME280;12670;53.502;10.252;2023-04-03T04:04:43;103019.44;;;1.75;91.55
16120;BME280;12670;53.502;10.252;2023-04-03T04:07:48;103009.69;;;1.70;91.36
16120;BME280;12670;53.502;10.252;2023-04-03T04:10:52;103016.78;;;1.74;91.24
16120;BME280;12670;53.502;10.252;2023-04-03T04:13:55;103009.84;;;1.74;90.91
16120;BME280;12670;53.502;10.252;2023-04-03T04:16:57;103016.34;;;1.58;91.82
16120;BME280;12670;53.502;10.252;2023-04-03T04:20:01;103020.97;;;1.67;91.20
16120;BME280;12670;53.502;10.252;2023-04-03T04:23:06;103025.25;;;1.65;91.28
16120;BME280;12670;53.502;10.252;2023-04-03T04:26:09;103021.69;;;1.63;91.09
16120;BME280;12670;53.502;10.252;2023-04-03T04:29:11;103021.47;;;1.55;92.07
16120;BME280;12670;53.502;10.252;2023-04-03T04:32:14;103019.66;;;1.53;91.83
16120;BME280;12670;53.502;10.252;2023-04-03T04:35:18;103026.00;;;1.61;91.97
16120;BME280;12670;53.502;10.252;2023-04-03T04:38:21;103032.06;;;1.60;91.66
16120;BME280;12670;53.502;10.252;2023-04-03T04:41:23;103034.78;;;1.63;91.65
16120;BME280;12670;53.502;10.252;2023-04-03T04:44:26;103035.78;;;1.67;91.58
16120;BME280;12670;53.502;10.252;2023-04-03T04:47:29;103034.28;;;1.75;91.04
16120;BME280;12670;53.502;10.252;2023-04-03T04:50:33;103044.53;;;1.69;91.24
16120;BME280;12670;53.502;10.252;2023-04-03T04:53:36;103046.59;;;1.77;91.05
16120;BME280;12670;53.502;10.252;2023-04-03T04:56:39;103054.28;;;1.73;90.97
16120;BME280;12670;53.502;10.252;2023-04-03T04:59:41;103052.94;;;1.85;91.40
16120;BME280;12670;53.502;10.252;2023-04-03T05:02:44;103051.69;;;1.74;91.22
16120;BME280;12670;53.502;10.252;2023-04-03T05:05:48;103055.59;;;1.87;91.06
16120;BME280;12670;53.502;10.252;2023-04-03T05:08:50;103057.09;;;1.79;90.98
16120;BME280;12670;53.502;10.252;2023-04-03T05:11:53;103058.44;;;1.66;91.57
16120;BME280;12670;53.502;10.252;2023-04-03T05:14:56;103062.13;;;1.73;91.61
16120;BME280;12670;53.502;10.252;2023-04-03T05:17:59;103061.44;;;1.78;91.27
16120;BME280;12670;53.502;10.252;2023-04-03T05:21:03;103071.06;;;1.79;91.29
16120;BME280;12670;53.502;10.252;2023-04-03T05:24:06;103072.75;;;1.77;91.09
16120;BME280;12670;53.502;10.252;2023-04-03T05:27:10;103063.13;;;1.76;91.41
16120;BME280;12670;53.502;10.252;2023-04-03T05:30:13;103072.75;;;1.77;91.37
16120;BME280;12670;53.502;10.252;2023-04-03T05:33:16;103073.28;;;1.67;91.98
16120;BME280;12670;53.502;10.252;2023-04-03T05:36:20;103071.91;;;1.78;91.59
16120;BME280;12670;53.502;10.252;2023-04-03T05:39:22;103083.75;;;1.67;92.66
16120;BME280;12670;53.502;10.252;2023-04-03T05:42:25;103093.22;;;1.91;91.94
16120;BME280;12670;53.502;10.252;2023-04-03T05:45:28;103094.09;;;1.90;91.94
16120;BME280;12670;53.502;10.252;2023-04-03T05:48:31;103094.03;;;1.88;92.53
16120;BME280;12670;53.502;10.252;2023-04-03T05:51:36;103092.31;;;1.89;93.22
16120;BME280;12670;53.502;10.252;2023-04-03T05:54:38;103089.97;;;1.98;92.56
16120;BME280;12670;53.502;10.252;2023-04-03T05:57:41;103099.59;;;1.99;92.76
16120;BME280;12670;53.502;10.252;2023-04-03T06:00:44;103095.56;;;2.10;91.64
16120;BME280;12670;53.502;10.252;2023-04-03T06:03:46;103096.75;;;2.20;91.91
16120;BME280;12670;53.502;10.252;2023-04-03T06:06:55;103100.25;;;2.20;91.94
16120;BME280;12670;53.502;10.252;2023-04-03T06:09:59;103091.75;;;2.27;91.98
16120;BME280;12670;53.502;10.252;2023-04-03T06:13:02;103092.88;;;2.35;92.17
16120;BME280;12670;53.502;10.252;2023-04-03T06:16:05;103095.72;;;2.43;92.34
16120;BME280;12670;53.502;10.252;2023-04-03T06:19:08;103102.19;;;2.56;91.98
16120;BME280;12670;53.502;10.252;2023-04-03T06:22:12;103100.19;;;2.77;91.22
16120;BME280;12670;53.502;10.252;2023-04-03T06:25:16;103096.44;;;2.69;91.84
16120;BME280;12670;53.502;10.252;2023-04-03T06:28:20;103096.56;;;2.72;92.17
16120;BME280;12670;53.502;10.252;2023-04-03T06:31:22;103106.69;;;2.91;90.99
16120;BME280;12670;53.502;10.252;2023-04-03T06:34:25;103107.97;;;3.06;89.53
16120;BME280;12670;53.502;10.252;2023-04-03T06:37:30;103106.59;;;3.20;89.47
16120;BME280;12670;53.502;10.252;2023-04-03T06:40:33;103117.97;;;3.20;89.08
16120;BME280;12670;53.502;10.252;2023-04-03T06:43:37;103113.91;;;3.32;89.20
16120;BME280;12670;53.502;10.252;2023-04-03T06:46:39;103125.91;;;3.57;87.78
16120;BME280;12670;53.502;10.252;2023-04-03T06:49:42;103118.31;;;3.67;87.56
16120;BME280;12670;53.502;10.252;2023-04-03T06:52:47;103120.97;;;3.69;86.23
16120;BME280;12670;53.502;10.252;2023-04-03T06:55:49;103121.44;;;3.87;87.76
16120;BME280;12670;53.502;10.252;2023-04-03T06:58:53;103128.88;;;4.07;87.27
16120;BME280;12670;53.502;10.252;2023-04-03T07:01:56;103126.38;;;4.11;86.41
16120;BME280;12670;53.502;10.252;2023-04-03T07:05:00;103137.16;;;4.23;86.84
16120;BME280;12670;53.502;10.252;2023-04-03T07:08:04;103129.84;;;4.49;85.45
16120;BME280;12670;53.502;10.252;2023-04-03T07:11:08;103137.00;;;4.57;86.27
16120;BME280;12670;53.502;10.252;2023-04-03T07:14:11;103133.91;;;4.76;84.91
16120;BME280;12670;53.502;10.252;2023-04-03T07:17:13;103133.91;;;4.76;84.67
16120;BME280;12670;53.502;10.252;2023-04-03T07:20:16;103136.16;;;5.01;84.50
16120;BME280;12670;53.502;10.252;2023-04-03T07:23:20;103143.81;;;4.88;83.53
16120;BME280;12670;53.502;10.252;2023-04-03T07:26:23;103140.13;;;5.25;82.92
16120;BME280;12670;53.502;10.252;2023-04-03T07:29:26;103144.59;;;5.29;81.54
16120;BME280;12670;53.502;10.252;2023-04-03T07:32:29;103138.88;;;5.53;80.64
16120;BME280;12670;53.502;10.252;2023-04-03T07:35:32;103142.53;;;5.62;79.34
16120;BME280;12670;53.502;10.252;2023-04-03T07:38:36;103132.44;;;5.87;78.50
16120;BME280;12670;53.502;10.252;2023-04-03T07:41:39;103141.38;;;5.95;79.43
16120;BME280;12670;53.502;10.252;2023-04-03T07:44:42;103142.78;;;5.75;78.11
16120;BME280;12670;53.502;10.252;2023-04-03T07:47:45;103136.84;;;5.89;74.88
16120;BME280;12670;53.502;10.252;2023-04-03T07:50:48;103137.59;;;5.81;74.61
16120;BME280;12670;53.502;10.252;2023-04-03T07:53:53;103145.13;;;6.11;71.91
16120;BME280;12670;53.502;10.252;2023-04-03T07:56:56;103135.66;;;6.24;69.12
16120;BME280;12670;53.502;10.252;2023-04-03T07:59:59;103134.13;;;6.41;65.81
16120;BME280;12670;53.502;10.252;2023-04-03T08:03:01;103138.63;;;6.48;65.26
16120;BME280;12670;53.502;10.252;2023-04-03T08:06:06;103133.47;;;6.57;65.92
16120;BME280;12670;53.502;10.252;2023-04-03T08:09:17;103133.66;;;6.73;64.65
16120;BME280;12670;53.502;10.252;2023-04-03T08:12:19;103137.50;;;6.99;62.43
16120;BME280;12670;53.502;10.252;2023-04-03T08:15:22;103136.63;;;6.99;63.80
16120;BME280;12670;53.502;10.252;2023-04-03T08:18:25;103145.56;;;7.11;63.44
16120;BME280;12670;53.502;10.252;2023-04-03T08:21:28;103143.59;;;6.93;61.73
16120;BME280;12670;53.502;10.252;2023-04-03T08:24:33;103133.66;;;7.56;61.53
16120;BME280;12670;53.502;10.252;2023-04-03T08:27:38;103140.03;;;7.77;61.36
16120;BME280;12670;53.502;10.252;2023-04-03T08:30:41;103137.38;;;7.80;55.50
16120;BME280;12670;53.502;10.252;2023-04-03T08:33:45;103128.66;;;7.88;53.49
16120;BME280;12670;53.502;10.252;2023-04-03T08:36:47;103131.34;;;7.93;54.35
16120;BME280;12670;53.502;10.252;2023-04-03T08:39:52;103130.53;;;8.08;52.96
16120;BME280;12670;53.502;10.252;2023-04-03T08:43:06;103142.09;;;8.19;50.28
16120;BME280;12670;53.502;10.252;2023-04-03T08:46:23;103128.19;;;8.44;45.94
16120;BME280;12670;53.502;10.252;2023-04-03T08:49:31;103125.69;;;8.84;46.94
16120;BME280;12670;53.502;10.252;2023-04-03T08:52:38;103124.00;;;9.04;45.28
16120;BME280;12670;53.502;10.252;2023-04-03T08:55:46;103129.28;;;9.14;48.01
16120;BME280;12670;53.502;10.252;2023-04-03T08:58:50;103123.16;;;9.28;45.56
16120;BME280;12670;53.502;10.252;2023-04-03T09:01:57;103128.47;;;9.41;47.10
16120;BME280;12670;53.502;10.252;2023-04-03T09:05:02;103125.84;;;9.50;47.01
16120;BME280;12670;53.502;10.252;2023-04-03T09:08:09;103128.50;;;9.74;43.24
16120;BME280;12670;53.502;10.252;2023-04-03T09:11:20;103126.72;;;9.85;42.60
16120;BME280;12670;53.502;10.252;2023-04-03T09:14:29;103127.59;;;9.52;44.51
16120;BME280;12670;53.502;10.252;2023-04-03T09:17:41;103118.75;;;9.49;42.21
16120;BME280;12670;53.502;10.252;2023-04-03T09:20:51;103116.97;;;9.78;42.76
16120;BME280;12670;53.502;10.252;2023-04-03T09:23:58;103109.03;;;9.66;41.83
16120;BME280;12670;53.502;10.252;2023-04-03T09:27:05;103113.44;;;9.98;43.69
16120;BME280;12670;53.502;10.252;2023-04-03T09:30:13;103121.41;;;10.04;41.50
16120;BME280;12670;53.502;10.252;2023-04-03T09:33:17;103109.88;;;10.22;41.06
16120;BME280;12670;53.502;10.252;2023-04-03T09:36:40;103117.78;;;10.37;40.03
16120;BME280;12670;53.502;10.252;2023-04-03T09:39:53;103117.75;;;10.48;40.26
16120;BME280;12670;53.502;10.252;2023-04-03T09:43:00;103110.75;;;10.13;38.31
16120;BME280;12670;53.502;10.252;2023-04-03T09:46:20;103103.72;;;9.94;40.86
16120;BME280;12670;53.502;10.252;2023-04-03T09:49:25;103110.78;;;9.95;41.80
16120;BME280;12670;53.502;10.252;2023-04-03T09:52:28;103107.84;;;10.91;39.01
16120;BME280;12670;53.502;10.252;2023-04-03T09:55:33;103092.66;;;11.13;38.96
16120;BME280;12670;53.502;10.252;2023-04-03T09:58:47;103097.06;;;11.20;39.57
16120;BME280;12670;53.502;10.252;2023-04-03T10:01:59;103086.97;;;11.59;38.17
16120;BME280;12670;53.502;10.252;2023-04-03T10:05:03;103090.22;;;11.94;39.09
16120;BME280;12670;53.502;10.252;2023-04-03T10:08:20;103084.25;;;11.66;42.00
16120;BME280;12670;53.502;10.252;2023-04-03T10:11:25;103081.91;;;12.25;39.42
16120;BME280;12670;53.502;10.252;2023-04-03T10:14:29;103076.91;;;12.73;39.21
16120;BME280;12670;53.502;10.252;2023-04-03T10:17:39;103068.28;;;13.16;37.45
16120;BME280;12670;53.502;10.252;2023-04-03T10:20:48;103077.63;;;12.82;36.52
16120;BME280;12670;53.502;10.252;2023-04-03T10:24:00;103084.22;;;12.56;36.34
16120;BME280;12670;53.502;10.252;2023-04-03T10:27:11;103080.22;;;12.89;36.51
16120;BME280;12670;53.502;10.252;2023-04-03T10:30:34;103076.81;;;13.39;36.07
16120;BME280;12670;53.502;10.252;2023-04-03T10:33:55;103066.47;;;13.72;36.95
16120;BME280;12670;53.502;10.252;2023-04-03T10:37:04;103062.34;;;14.03;34.85
16120;BME280;12670;53.502;10.252;2023-04-03T10:40:17;103070.78;;;13.28;36.46
16120;BME280;12670;53.502;10.252;2023-04-03T10:43:27;103064.13;;;12.96;38.56
16120;BME280;12670;53.502;10.252;2023-04-03T10:46:37;103069.41;;;11.42;37.97
16120;BME280;12670;53.502;10.252;2023-04-03T10:49:48;103062.50;;;11.21;39.69
16120;BME280;12670;53.502;10.252;2023-04-03T10:53:04;103062.00;;;10.52;42.19
16120;BME280;12670;53.502;10.252;2023-04-03T10:56:13;103061.31;;;9.97;42.15
16120;BME280;12670;53.502;10.252;2023-04-03T10:59:25;103055.09;;;10.04;43.24
16120;BME280;12670;53.502;10.252;2023-04-03T11:02:36;103042.09;;;12.17;41.46
16120;BME280;12670;53.502;10.252;2023-04-03T11:05:43;103042.97;;;13.44;37.61
16120;BME280;12670;53.502;10.252;2023-04-03T11:08:50;103037.03;;;12.67;37.40
16120;BME280;12670;53.502;10.252;2023-04-03T11:12:03;103035.25;;;12.67;36.79
16120;BME280;12670;53.502;10.252;2023-04-03T11:15:12;103024.06;;;13.56;36.45
16120;BME280;12670;53.502;10.252;2023-04-03T11:18:21;103035.03;;;13.40;36.09
16120;BME280;12670;53.502;10.252;2023-04-03T11:21:28;103029.78;;;12.09;37.99
16120;BME280;12670;53.502;10.252;2023-04-03T11:24:33;103032.56;;;10.90;39.75
16120;BME280;12670;53.502;10.252;2023-04-03T11:27:40;103023.00;;;10.65;40.75
16120;BME280;12670;53.502;10.252;2023-04-03T11:30:47;103017.88;;;10.34;42.53
16120;BME280;12670;53.502;10.252;2023-04-03T11:34:04;103014.34;;;10.28;41.86
16120;BME280;12670;53.502;10.252;2023-04-03T11:37:17;103015.34;;;9.92;43.37
16120;BME280;12670;53.502;10.252;2023-04-03T11:40:26;103023.34;;;9.43;44.69
16120;BME280;12670;53.502;10.252;2023-04-03T11:43:32;103015.44;;;9.09;45.91
16120;BME280;12670;53.502;10.252;2023-04-03T11:46:52;103016.31;;;9.17;44.48
16120;BME280;12670;53.502;10.252;2023-04-03T11:50:00;103013.66;;;9.26;43.66
16120;BME280;12670;53.502;10.252;2023-04-03T11:53:34;103011.88;;;9.38;42.51
16120;BME280;12670;53.502;10.252;2023-04-03T11:56:37;102996.81;;;9.72;43.39
16120;BME280;12670;53.502;10.252;2023-04-03T11:59:39;102991.84;;;11.91;41.30
16120;BME280;12670;53.502;10.252;2023-04-03T12:02:43;102984.31;;;13.41;38.08
16120;BME280;12670;53.502;10.252;2023-04-03T12:05:57;102983.44;;;13.41;36.66
16120;BME280;12670;53.502;10.252;2023-04-03T12:09:25;102986.88;;;11.53;39.12
16120;BME280;12670;53.502;10.252;2023-04-03T12:12:37;102998.22;;;10.64;40.30
16120;BME280;12670;53.502;10.252;2023-04-03T12:15:53;102984.31;;;10.13;41.73
16120;BME280;12670;53.502;10.252;2023-04-03T12:19:00;102981.72;;;9.91;41.27
16120;BME280;12670;53.502;10.252;2023-04-03T12:22:15;102979.81;;;10.35;41.99
16120;BME280;12670;53.502;10.252;2023-04-03T12:25:47;102978.03;;;11.56;39.74
16120;BME280;12670;53.502;10.252;2023-04-03T12:28:51;102989.16;;;10.98;40.08
16120;BME280;12670;53.502;10.252;2023-04-03T12:32:06;102974.75;;;11.28;40.12
16120;BME280;12670;53.502;10.252;2023-04-03T12:35:20;102975.75;;;12.04;38.89
16120;BME280;12670;53.502;10.252;2023-04-03T12:39:00;102974.66;;;13.36;37.12
16120;BME280;12670;53.502;10.252;2023-04-03T12:42:17;102967.34;;;13.93;35.09
16120;BME280;12670;53.502;10.252;2023-04-03T12:45:27;102960.94;;;15.16;34.50
16120;BME280;12670;53.502;10.252;2023-04-03T12:48:32;102953.66;;;15.23;32.26
16120;BME280;12670;53.502;10.252;2023-04-03T12:51:38;102953.88;;;14.80;33.07
16120;BME280;12670;53.502;10.252;2023-04-03T12:54:45;102958.63;;;14.65;34.99
16120;BME280;12670;53.502;10.252;2023-04-03T12:57:48;102951.75;;;13.24;34.66
16120;BME280;12670;53.502;10.252;2023-04-03T13:01:02;102954.59;;;11.90;37.15
16120;BME280;12670;53.502;10.252;2023-04-03T13:04:05;102958.38;;;11.69;36.53
16120;BME280;12670;53.502;10.252;2023-04-03T13:07:19;102956.47;;;13.06;36.28
16120;BME280;12670;53.502;10.252;2023-04-03T13:10:23;102950.00;;;14.12;34.09
16120;BME280;12670;53.502;10.252;2023-04-03T13:13:26;102951.69;;;14.96;32.68
16120;BME280;12670;53.502;10.252;2023-04-03T13:16:29;102957.38;;;14.82;33.02
16120;BME280;12670;53.502;10.252;2023-04-03T13:19:33;102945.19;;;13.88;33.00
16120;BME280;12670;53.502;10.252;2023-04-03T13:22:36;102949.81;;;13.80;33.53
16120;BME280;12670;53.502;10.252;2023-04-03T13:25:47;102948.88;;;13.36;34.59
16120;BME280;12670;53.502;10.252;2023-04-03T13:28:50;102946.69;;;14.43;32.44
16120;BME280;12670;53.502;10.252;2023-04-03T13:31:55;102938.31;;;13.78;31.86
16120;BME280;12670;53.502;10.252;2023-04-03T13:34:59;102938.09;;;14.29;31.26
16120;BME280;12670;53.502;10.252;2023-04-03T13:38:24;102939.25;;;14.17;32.75
16120;BME280;12670;53.502;10.252;2023-04-03T13:41:31;102935.22;;;14.77;33.11
16120;BME280;12670;53.502;10.252;2023-04-03T13:44:36;102929.78;;;14.01;32.57
16120;BME280;12670;53.502;10.252;2023-04-03T13:47:42;102933.66;;;13.43;34.17
16120;BME280;12670;53.502;10.252;2023-04-03T13:51:12;102941.63;;;12.33;32.68
16120;BME280;12670;53.502;10.252;2023-04-03T13:54:21;102933.56;;;12.39;34.22
16120;BME280;12670;53.502;10.252;2023-04-03T13:57:25;102923.50;;;13.12;33.63
16120;BME280;12670;53.502;10.252;2023-04-03T14:00:37;102919.25;;;13.02;32.12
16120;BME280;12670;53.502;10.252;2023-04-03T14:03:45;102909.63;;;12.93;32.46
16120;BME280;12670;53.502;10.252;2023-04-03T14:06:48;102913.53;;;12.71;34.23
16120;BME280;12670;53.502;10.252;2023-04-03T14:09:53;102914.44;;;12.70;34.36
16120;BME280;12670;53.502;10.252;2023-04-03T14:12:57;102910.69;;;12.81;34.94
16120;BME280;12670;53.502;10.252;2023-04-03T14:16:00;102910.06;;;13.20;34.39
16120;BME280;12670;53.502;10.252;2023-04-03T14:19:22;102913.81;;;13.06;34.43
16120;BME280;12670;53.502;10.252;2023-04-03T14:22:27;102916.94;;;12.22;34.55
16120;BME280;12670;53.502;10.252;2023-04-03T14:25:30;102900.22;;;12.14;36.58
16120;BME280;12670;53.502;10.252;2023-04-03T14:28:34;102914.16;;;11.59;35.79
16120;BME280;12670;53.502;10.252;2023-04-03T14:31:37;102902.91;;;11.35;36.89
16120;BME280;12670;53.502;10.252;2023-04-03T14:34:41;102902.25;;;11.12;37.13
16120;BME280;12670;53.502;10.252;2023-04-03T14:37:45;102913.78;;;11.08;36.46
16120;BME280;12670;53.502;10.252;2023-04-03T14:40:48;102918.59;;;10.64;37.28
16120;BME280;12670;53.502;10.252;2023-04-03T14:43:53;102907.41;;;11.26;36.87
16120;BME280;12670;53.502;10.252;2023-04-03T14:46:56;102899.59;;;11.12;36.06
16120;BME280;12670;53.502;10.252;2023-04-03T14:49:59;102909.75;;;10.64;37.25
16120;BME280;12670;53.502;10.252;2023-04-03T14:53:02;102910.69;;;10.57;38.25
16120;BME280;12670;53.502;10.252;2023-04-03T14:56:11;102897.63;;;10.19;36.07
16120;BME280;12670;53.502;10.252;2023-04-03T14:59:15;102909.84;;;10.47;37.94
16120;BME280;12670;53.502;10.252;2023-04-03T15:02:26;102899.44;;;10.15;35.85
16120;BME280;12670;53.502;10.252;2023-04-03T15:05:29;102900.13;;;10.51;35.31
16120;BME280;12670;53.502;10.252;2023-04-03T15:08:32;102903.63;;;10.56;35.71
16120;BME280;12670;53.502;10.252;2023-04-03T15:11:35;102893.25;;;10.14;37.58
16120;BME280;12670;53.502;10.252;2023-04-03T15:14:39;102899.22;;;10.49;37.10
16120;BME280;12670;53.502;10.252;2023-04-03T15:17:54;102892.59;;;9.57;37.86
16120;BME280;12670;53.502;10.252;2023-04-03T15:20:59;102896.97;;;9.69;37.24
16120;BME280;12670;53.502;10.252;2023-04-03T15:24:02;102908.41;;;9.79;38.35
16120;BME280;12670;53.502;10.252;2023-04-03T15:27:05;102906.81;;;9.27;39.25
16120;BME280;12670;53.502;10.252;2023-04-03T15:30:14;102898.00;;;9.16;39.17
16120;BME280;12670;53.502;10.252;2023-04-03T15:33:17;102894.47;;;9.02;39.89
16120;BME280;12670;53.502;10.252;2023-04-03T15:36:19;102893.63;;;8.69;40.95
16120;BME280;12670;53.502;10.252;2023-04-03T15:39:35;102889.16;;;9.29;40.32
16120;BME280;12670;53.502;10.252;2023-04-03T15:42:37;102890.06;;;9.10;40.53
16120;BME280;12670;53.502;10.252;2023-04-03T15:45:42;102883.88;;;9.11;40.37
16120;BME280;12670;53.502;10.252;2023-04-03T15:48:46;102888.28;;;9.12;40.59
16120;BME280;12670;53.502;10.252;2023-04-03T15:51:50;102880.25;;;9.58;40.67
16120;BME280;12670;53.502;10.252;2023-04-03T15:54:53;102883.88;;;9.06;39.84
16120;BME280;12670;53.502;10.252;2023-04-03T15:57:56;102882.16;;;8.79;40.67
16120;BME280;12670;53.502;10.252;2023-04-03T16:01:00;102884.78;;;8.64;41.62
16120;BME280;12670;53.502;10.252;2023-04-03T16:04:04;102883.00;;;8.54;42.31
16120;BME280;12670;53.502;10.252;2023-04-03T16:07:07;102881.25;;;8.90;41.48
16120;BME280;12670;53.502;10.252;2023-04-03T16:10:11;102885.66;;;8.91;42.32